KDEC

Decatur Airport

Airport
ICAO code
KDEC
IATA Code
DEC
Summary
ICAO Region
NAM
ICAO Territory
Location

Decatur, Illinois

Serving
Decatur
Elevation
682 ft
Coordinates
39° 50' 2" N , 88° 51' 33" W
KCC
Metar
KDEC 181054Z 18003KT 9SM CLR 17/17 A2986 RMK AO2 SLP108 T01670167

Description

Decatur Airport is a public use airport located 5 nm east of the central business district of Decatur, a city in Macon County, Illinois.

Airport map

Aerial View

SKYbrary Partners:

Safety knowledge contributed by: